Detalii statie SOMALEX GHIMPATI [0000198E]

Toti senzorii

Date Temperatura solului [C]Precipitatii [mm]Voltaj baterie [mV]Leaf Wetness [Min]HC Air temperature [C]HC Relative humidity [%]Punctul de roua [C]
medieminmaxsumaultimatimpmedieminmaxmediemediemin
2018-10-20 15:00:00 16.2 16.1 16.4 0 6982 20.11 20.1 20.13 100 20.1 20.1
2018-10-20 15:10:00 16.2 16.2 16.2 0 6932 19.86 19.82 19.91 100 19.8 19.8
2018-10-20 15:20:00 16.2 16.1 16.3 0 6942 19.63 19.55 19.72 100 19.6 19.5
2018-10-20 15:30:00 16.1 16.1 16.2 0 6942 19.31 19.25 19.37 100 19.2 19.2
2018-10-20 15:40:00 16.2 16.2 16.3 0 6952 19.21 19.21 19.22 100 19.2 19.2
2018-10-20 15:50:00 16.1 16.1 16.2 0 6952 19.05 19.02 19.09 100 19 19
2018-10-20 16:00:00 16.1 16.1 16.2 0 6962 18.95 18.94 18.96 100 18.9 18.9
2018-10-20 16:10:00 16.1 16.1 16.2 0 6904 18.77 18.74 18.81 100 18.7 18.7
2018-10-20 16:20:00 16 16 16.1 0 6914 18.5 18.41 18.6 100 18.5 18.4
2018-10-20 16:30:00 16 16 16.1 0 6914 18.03 17.9 18.17 100 18 17.9
2018-10-20 16:40:00 16.1 16.1 16.1 0 6904 17.6 17.51 17.7 100 17.6 17.5
2018-10-20 16:50:00 16 16 16.1 0 6904 17.12 16.99 17.25 100 17 16.9
2018-10-20 17:00:00 16 16 16 0 6894 16.61 16.51 16.71 100 16.6 16.5
2018-10-20 17:10:00 15.9 15.9 16 0 6854 16.25 16.17 16.34 100 16.2 16.1
2018-10-20 17:20:00 15.9 15.9 15.9 0 6874 15.97 15.87 16.07 100 15.9 15.8
2018-10-20 17:30:00 15.8 15.8 15.8 0 6884 15.72 15.72 15.72 100 15.7 15.7
2018-10-20 17:40:00 15.8 15.8 15.9 0 6884 15.75 15.75 15.75 100 15.7 15.7
2018-10-20 17:50:00 15.7 15.6 15.8 0 6864 15.67 15.62 15.72 100 15.6 15.6
2018-10-20 18:00:00 15.6 15.6 15.7 0 6864 15.67 15.62 15.72 100 15.6 15.6
2018-10-20 18:10:00 15.6 15.6 15.7 0 6826 16.21 16.19 16.24 100 16.1 16.1
2018-10-20 18:20:00 15.6 15.6 15.7 0 6844 15.42 15.24 15.6 100 15.4 15.2
2018-10-20 18:30:00 15.7 15.7 15.7 0 6844 14.97 14.94 15 100 14.9 14.9
2018-10-20 18:40:00 15.5 15.5 15.6 0 6854 14.69 14.61 14.77 100 14.6 14.6
2018-10-20 18:50:00 15.5 15.5 15.6 0 6844 14.5 14.49 14.52 100 14.4 14.4
2018-10-20 19:00:00 15.4 15.4 15.5 0 6854 14.41 14.36 14.46 100 14.3 14.3
2018-10-20 19:10:00 15.4 15.4 15.4 0 6796 14.28 14.27 14.29 100 14.2 14.2
2018-10-20 19:20:00 15.5 15.4 15.6 0 6816 14.29 14.28 14.31 100 14.2 14.2
2018-10-20 19:30:00 15.4 15.4 15.4 0 6826 14.19 14.12 14.26 100 14.1 14.1
2018-10-20 19:40:00 15.4 15.4 15.5 0 6816 13.81 13.74 13.88 100 13.7 13.7
2018-10-20 19:50:00 15.4 15.4 15.5 0.2 6826 13.62 13.6 13.64 100 13.6 13.6
2018-10-20 20:00:00 15.5 15.5 15.5 0 6816 13.39 13.35 13.44 100 13.3 13.3
2018-10-20 20:10:00 15.3 15.3 15.3 0 6786 13.3 13.29 13.32 100 13.2 13.2
2018-10-20 20:20:00 15.3 15.3 15.3 0 6786 13.43 13.39 13.47 100 13.3 13.3
2018-10-20 20:30:00 15.2 15.2 15.3 0 6806 13.37 13.31 13.44 100 13.3 13.3
2018-10-20 20:40:00 15.2 15.2 15.3 0 6796 13.45 13.44 13.46 100 13.4 13.4
2018-10-20 20:50:00 15.3 15.2 15.4 0 6806 13.3 13.23 13.37 100 13.2 13.2
2018-10-20 21:00:00 15.1 15 15.2 0 6806 13.22 13.21 13.24 100 13.2 13.2
2018-10-20 21:10:00 15 15 15.1 0 6756 13.21 13.17 13.25 100 13.1 13.1
2018-10-20 21:20:00 15.1 15.1 15.2 0 6786 13.07 13.07 13.07 100 13 13
2018-10-20 21:30:00 14.9 14.9 15 0 6786 13.1 13.09 13.12 100 13 13
2018-10-20 21:40:00 15 14.9 15.1 0 6796 13.07 13.03 13.11 100 13 13
2018-10-20 21:50:00 14.9 14.9 15 0 6786 12.91 12.87 12.95 100 12.8 12.8
2018-10-20 22:00:00 14.9 14.9 14.9 0 6796 12.68 12.64 12.73 100 12.6 12.6
2018-10-20 22:10:00 14.8 14.8 14.9 0 6748 12.57 12.57 12.58 100 12.5 12.5
2018-10-20 22:20:00 14.8 14.8 14.8 0 6776 12.79 12.68 12.91 100 12.7 12.6
2018-10-20 22:30:00 14.8 14.8 14.9 0 6776 13.1 13.01 13.2 100 13.1 13
2018-10-20 22:40:00 14.7 14.6 14.8 0 6786 13.34 13.29 13.4 100 13.3 13.2
2018-10-20 22:50:00 14.8 14.8 14.8 0 6776 13.46 13.45 13.48 100 13.4 13.4